createdAt,value
2019-03-10T00:00:00.363Z,98540.61
2019-03-10T00:02:32.838Z,98545.37
2019-03-10T00:05:05.070Z,98544.56
2019-03-10T00:07:36.551Z,98542.10
2019-03-10T00:10:10.080Z,98549.42
2019-03-10T00:12:42.550Z,98544.23
2019-03-10T00:15:15.140Z,98555.71
2019-03-10T00:17:47.518Z,98552.58
2019-03-10T00:20:19.890Z,98546.98
2019-03-10T00:22:52.230Z,98529.91
2019-03-10T00:25:25.924Z,98526.02
2019-03-10T00:27:58.330Z,98513.19
2019-03-10T00:30:31.760Z,98512.78
2019-03-10T00:33:04.140Z,98517.16
2019-03-10T00:35:36.502Z,98521.27
2019-03-10T00:38:08.880Z,98525.64
2019-03-10T00:41:32.440Z,98520.89
2019-03-10T00:45:03.098Z,98515.31
2019-03-10T00:48:20.638Z,98511.55
2019-03-10T00:51:25.643Z,98518.53
2019-03-10T00:53:57.830Z,98524.63
2019-03-10T00:56:29.568Z,98527.70
2019-03-10T00:59:01.729Z,98516.00
2019-03-10T01:01:35.561Z,98515.22
2019-03-10T01:04:07.779Z,98504.00
2019-03-10T01:06:38.999Z,98502.33
2019-03-10T01:09:11.592Z,98501.47
2019-03-10T01:11:44.028Z,98501.02
2019-03-10T01:14:16.370Z,98486.18
2019-03-10T01:16:48.992Z,98499.55
2019-03-10T01:19:23.630Z,98500.41
2019-03-10T01:21:57.408Z,98496.88
2019-03-10T01:24:29.808Z,98488.53
2019-03-10T01:27:02.190Z,98492.44
2019-03-10T01:29:34.490Z,98495.03
2019-03-10T01:32:33.667Z,98487.78
2019-03-10T01:35:12.524Z,98493.13
2019-03-10T01:37:45.113Z,98501.84
2019-03-10T01:40:17.580Z,98507.97
2019-03-10T01:42:49.998Z,98504.20
2019-03-10T01:45:22.349Z,98517.27
2019-03-10T01:47:54.681Z,98518.27
2019-03-10T01:50:26.980Z,98520.48
2019-03-10T01:52:59.351Z,98525.75
2019-03-10T01:55:31.624Z,98533.23
2019-03-10T01:58:02.939Z,98525.61
2019-03-10T02:00:35.127Z,98535.22
2019-03-10T02:03:07.620Z,98548.14
2019-03-10T02:05:40.028Z,98536.31
2019-03-10T02:08:13.098Z,98556.56
2019-03-10T02:10:45.395Z,98553.45
2019-03-10T02:13:17.800Z,98571.16
2019-03-10T02:15:51.197Z,98568.19
2019-03-10T02:18:23.788Z,98577.59
2019-03-10T02:20:56.020Z,98584.03
2019-03-10T02:23:28.118Z,98593.88
2019-03-10T02:26:00.213Z,98607.35
2019-03-10T02:28:32.589Z,98600.86
2019-03-10T02:31:04.975Z,98616.77
2019-03-10T02:33:37.310Z,98618.69
2019-03-10T02:36:09.641Z,98634.97
2019-03-10T02:38:41.997Z,98656.55
2019-03-10T02:41:14.624Z,98650.06
2019-03-10T02:43:46.990Z,98667.10
2019-03-10T02:46:19.296Z,98685.86
2019-03-10T02:48:51.562Z,98704.06
2019-03-10T02:51:23.881Z,98691.80
2019-03-10T02:53:54.919Z,98744.48
2019-03-10T02:56:27.111Z,98724.47
2019-03-10T02:58:59.434Z,98735.34
2019-03-10T03:01:32.120Z,98723.27
2019-03-10T03:04:04.502Z,98760.27
2019-03-10T03:06:36.771Z,98760.64
2019-03-10T03:09:08.033Z,98778.84
2019-03-10T03:11:40.616Z,98802.23
2019-03-10T03:14:12.741Z,98789.06
2019-03-10T03:16:46.162Z,98803.92
2019-03-10T03:19:18.419Z,98803.50
2019-03-10T03:21:50.771Z,98829.16
2019-03-10T03:24:23.118Z,98821.36
2019-03-10T03:26:55.522Z,98823.16
2019-03-10T03:29:27.766Z,98842.38
2019-03-10T03:32:00.279Z,98845.63
2019-03-10T03:34:32.619Z,98841.35
2019-03-10T03:37:05.903Z,98859.80
2019-03-10T03:39:47.650Z,98875.23
2019-03-10T03:42:20.071Z,98891.40
2019-03-10T03:44:52.496Z,98907.34
2019-03-10T03:47:24.842Z,98903.17
2019-03-10T03:49:57.301Z,98905.50
2019-03-10T03:52:29.632Z,98927.89
2019-03-10T03:55:02.822Z,98924.59
2019-03-10T03:57:35.122Z,98925.17
2019-03-10T04:00:07.707Z,98930.85
2019-03-10T04:02:40.766Z,98935.99
2019-03-10T04:05:13.761Z,98936.19
2019-03-10T04:07:46.062Z,98937.48
2019-03-10T04:10:18.400Z,98930.77
2019-03-10T04:12:50.852Z,98951.02
2019-03-10T04:15:23.321Z,98954.24
2019-03-10T04:17:55.744Z,98957.13
2019-03-10T04:20:28.079Z,98961.19
2019-03-10T04:23:00.661Z,98961.58
2019-03-10T04:25:33.340Z,98962.70
2019-03-10T04:28:06.780Z,98972.64
2019-03-10T04:30:39.031Z,98958.47
2019-03-10T04:33:10.178Z,98972.83
2019-03-10T04:35:42.366Z,98966.06
2019-03-10T04:38:14.756Z,98986.01
2019-03-10T04:40:47.052Z,98983.65
2019-03-10T04:43:19.495Z,98974.67
2019-03-10T04:45:51.930Z,98980.14
2019-03-10T04:48:24.290Z,98974.62
2019-03-10T04:50:57.170Z,98975.68
2019-03-10T04:53:29.410Z,98981.49
2019-03-10T04:56:12.607Z,98976.02
2019-03-10T04:58:50.910Z,98975.97
2019-03-10T05:01:23.724Z,98980.47
2019-03-10T05:03:56.060Z,98984.12
2019-03-10T05:06:28.322Z,98978.94
2019-03-10T05:08:59.508Z,98979.84
2019-03-10T05:11:31.710Z,98989.54
2019-03-10T05:14:05.134Z,98997.84
2019-03-10T05:16:37.650Z,99009.45
2019-03-10T05:19:10.101Z,99019.31
2019-03-10T05:21:42.450Z,99024.22
2019-03-10T05:24:16.120Z,99034.38
2019-03-10T05:26:48.572Z,99036.88
2019-03-10T05:29:20.820Z,99039.80
2019-03-10T05:31:52.019Z,99035.77
2019-03-10T05:34:24.311Z,99031.36
2019-03-10T05:36:56.630Z,99036.94
2019-03-10T05:39:29.011Z,99050.20
2019-03-10T05:42:01.330Z,99055.24
2019-03-10T05:44:33.789Z,99051.98
2019-03-10T05:47:06.220Z,99059.92
2019-03-10T05:49:38.596Z,99058.14
2019-03-10T05:52:11.851Z,99067.56
2019-03-10T05:54:44.522Z,99068.23
2019-03-10T05:57:16.800Z,99079.34
2019-03-10T05:59:49.080Z,99084.92
2019-03-10T06:02:21.413Z,99084.88
2019-03-10T06:04:53.670Z,99082.09
2019-03-10T06:07:24.949Z,99093.24
2019-03-10T06:09:58.062Z,99097.91
2019-03-10T06:12:30.290Z,99092.28
2019-03-10T06:15:01.608Z,99104.64
2019-03-10T06:17:33.973Z,99099.16
2019-03-10T06:20:06.951Z,99102.77
2019-03-10T06:22:39.121Z,99106.17
2019-03-10T06:25:10.429Z,99110.07
2019-03-10T06:27:42.560Z,99117.86
2019-03-10T06:30:15.070Z,99112.43
2019-03-10T06:32:47.400Z,99128.35
2019-03-10T06:35:19.701Z,99114.79
2019-03-10T06:37:52.690Z,99130.55
2019-03-10T06:40:32.258Z,99129.10
2019-03-10T06:43:00.170Z,99130.80
2019-03-10T06:45:32.537Z,99130.39
2019-03-10T06:48:04.970Z,99132.55
2019-03-10T06:50:38.371Z,99139.33
2019-03-10T06:53:10.750Z,99140.28
2019-03-10T06:55:44.230Z,99149.83
2019-03-10T06:58:16.580Z,99153.34
2019-03-10T07:00:48.930Z,99149.88
2019-03-10T07:03:22.250Z,99158.59
2019-03-10T07:05:54.620Z,99151.69
2019-03-10T07:08:27.059Z,99147.20
2019-03-10T07:10:59.466Z,99164.97
2019-03-10T07:13:31.799Z,99161.75
2019-03-10T07:16:04.200Z,99163.33
2019-03-10T07:18:36.580Z,99157.27
2019-03-10T07:21:09.044Z,99168.48
2019-03-10T07:23:41.413Z,99159.19
2019-03-10T07:26:13.870Z,99157.88
2019-03-10T07:28:51.810Z,99165.72
2019-03-10T07:31:37.432Z,99164.41
2019-03-10T07:34:40.758Z,99161.27
2019-03-10T07:37:35.149Z,99155.75
2019-03-10T07:40:24.490Z,99143.15
2019-03-10T07:43:10.020Z,99140.11
2019-03-10T07:46:01.050Z,99142.47
2019-03-10T07:48:58.109Z,99151.42
2019-03-10T07:51:51.640Z,99139.28
2019-03-10T07:54:57.865Z,99138.74
2019-03-10T07:57:57.931Z,99142.71
2019-03-10T08:00:58.650Z,99150.06
2019-03-10T08:03:48.251Z,99147.63
2019-03-10T08:06:39.420Z,99142.77
2019-03-10T08:09:33.300Z,99137.20
2019-03-10T08:12:17.210Z,99124.37
2019-03-10T08:15:15.031Z,99119.69
2019-03-10T08:18:06.233Z,99118.34
2019-03-10T08:20:47.749Z,99122.11
2019-03-10T08:23:38.621Z,99126.35
2019-03-10T08:26:36.230Z,99122.49
2019-03-10T08:29:24.521Z,99124.38
2019-03-10T08:32:14.420Z,99139.08
2019-03-10T08:34:53.901Z,99130.67
2019-03-10T08:38:00.770Z,99132.55
2019-03-10T08:40:48.892Z,99129.84
2019-03-10T08:43:39.314Z,99132.67
2019-03-10T08:46:30.390Z,99128.95
2019-03-10T08:49:21.870Z,99133.73
2019-03-10T08:52:14.559Z,99127.84
2019-03-10T08:55:04.090Z,99136.16
2019-03-10T08:58:04.364Z,99125.45
2019-03-10T09:01:09.971Z,99121.98
2019-03-10T09:03:48.040Z,99113.72
2019-03-10T09:06:37.730Z,99113.17
2019-03-10T09:09:47.018Z,99123.02
2019-03-10T09:12:35.140Z,99119.82
2019-03-10T09:15:29.594Z,99129.95
2019-03-10T09:18:32.647Z,99125.53
2019-03-10T09:21:14.080Z,99128.59
2019-03-10T09:24:18.424Z,99119.21
2019-03-10T09:27:09.510Z,99115.17
2019-03-10T09:30:07.420Z,99109.47
2019-03-10T09:33:07.680Z,99102.13
2019-03-10T09:36:01.910Z,99096.29
2019-03-10T09:38:52.361Z,99097.08
2019-03-10T09:41:46.629Z,99094.09
2019-03-10T09:44:36.781Z,99080.91
2019-03-10T09:47:27.970Z,99079.88
2019-03-10T09:50:18.020Z,99072.94
2019-03-10T09:53:07.736Z,99068.55
2019-03-10T09:56:05.060Z,99074.25
2019-03-10T09:58:54.780Z,99060.03
2019-03-10T10:01:47.159Z,99046.95
2019-03-10T10:04:27.084Z,99038.84
2019-03-10T10:07:22.480Z,99054.16
2019-03-10T10:10:04.101Z,99042.80
2019-03-10T10:13:00.284Z,99032.64
2019-03-10T10:15:42.151Z,99038.21
2019-03-10T10:18:36.631Z,99024.70
2019-03-10T10:21:40.030Z,99019.35
2019-03-10T10:24:37.017Z,99012.93
2019-03-10T10:27:23.513Z,99011.91
2019-03-10T10:30:04.012Z,99015.52
2019-03-10T10:33:04.511Z,99004.41
2019-03-10T10:36:10.643Z,99019.75
2019-03-10T10:39:05.045Z,98997.59
2019-03-10T10:42:09.489Z,99001.72
2019-03-10T10:45:08.080Z,98993.36
2019-03-10T10:48:00.368Z,98999.94
2019-03-10T10:50:57.397Z,98988.92
2019-03-10T10:53:48.770Z,98975.45
2019-03-10T10:56:42.700Z,98974.45
2019-03-10T10:59:27.913Z,98963.09
2019-03-10T11:02:06.527Z,98963.45
2019-03-10T11:05:01.963Z,98960.41
2019-03-10T11:07:52.298Z,98958.72
2019-03-10T11:10:55.470Z,98941.45
2019-03-10T11:13:48.059Z,98945.83
2019-03-10T11:16:31.268Z,98946.01
2019-03-10T11:19:07.974Z,98948.77
2019-03-10T11:22:05.952Z,98955.13
2019-03-10T11:24:57.220Z,98948.82
2019-03-10T11:27:47.280Z,98942.67
2019-03-10T11:30:54.459Z,98944.23
2019-03-10T11:33:45.681Z,98948.32
2019-03-10T11:36:42.750Z,98937.36
2019-03-10T11:39:43.104Z,98931.99
2019-03-10T11:42:40.770Z,98937.86
2019-03-10T11:45:37.756Z,98935.09
2019-03-10T11:48:27.390Z,98938.77
2019-03-10T11:51:20.301Z,98934.45
2019-03-10T11:54:10.990Z,98936.82
2019-03-10T11:57:02.336Z,98936.89
2019-03-10T11:59:43.350Z,98947.21
2019-03-10T12:02:28.282Z,98944.56
2019-03-10T12:05:14.150Z,98944.24
2019-03-10T12:08:00.584Z,98945.66
2019-03-10T12:10:33.060Z,98935.07
2019-03-10T12:13:05.970Z,98933.16
2019-03-10T12:15:38.400Z,98923.80
2019-03-10T12:18:10.890Z,98921.59
2019-03-10T12:20:43.299Z,98925.95
2019-03-10T12:23:15.980Z,98926.89
2019-03-10T12:25:48.620Z,98931.31
2019-03-10T12:28:22.051Z,98921.19
2019-03-10T12:30:54.535Z,98922.58
2019-03-10T12:33:27.075Z,98918.37
2019-03-10T12:35:59.734Z,98914.34
2019-03-10T12:38:32.290Z,98919.13
2019-03-10T12:41:08.528Z,98912.50
2019-03-10T12:43:42.060Z,98913.52
2019-03-10T12:46:16.432Z,98909.09
2019-03-10T12:48:56.388Z,98912.12
2019-03-10T12:51:29.631Z,98914.53
2019-03-10T12:54:02.120Z,98907.88
2019-03-10T12:56:36.040Z,98904.42
2019-03-10T12:59:11.754Z,98887.95
2019-03-10T13:01:45.243Z,98888.34
2019-03-10T13:04:21.121Z,98887.40
2019-03-10T13:06:55.683Z,98876.08
2019-03-10T13:09:28.042Z,98879.74
2019-03-10T13:12:00.592Z,98875.63
2019-03-10T13:14:33.030Z,98867.55
2019-03-10T13:17:05.490Z,98874.41
2019-03-10T13:19:38.170Z,98864.20
2019-03-10T13:22:12.021Z,98863.83
2019-03-10T13:24:44.587Z,98859.82
2019-03-10T13:27:16.960Z,98859.06
2019-03-10T13:29:48.398Z,98861.57
2019-03-10T13:32:21.719Z,98854.09
2019-03-10T13:34:54.255Z,98850.52
2019-03-10T13:37:26.800Z,98845.59
2019-03-10T13:40:05.020Z,98848.33
2019-03-10T13:42:37.731Z,98838.66
2019-03-10T13:45:10.475Z,98832.20
2019-03-10T13:47:43.143Z,98835.58
2019-03-10T13:50:16.240Z,98824.73
2019-03-10T13:52:49.230Z,98828.86
2019-03-10T13:55:21.524Z,98823.06
2019-03-10T13:57:52.909Z,98811.20
2019-03-10T14:00:25.750Z,98814.27
2019-03-10T14:02:58.167Z,98810.72
2019-03-10T14:05:30.740Z,98808.46
2019-03-10T14:08:03.220Z,98794.73
2019-03-10T14:10:35.700Z,98799.13
2019-03-10T14:13:08.371Z,98784.91
2019-03-10T14:15:40.749Z,98783.88
2019-03-10T14:18:15.440Z,98777.55
2019-03-10T14:20:47.833Z,98772.88
2019-03-10T14:23:20.290Z,98751.28
2019-03-10T14:25:52.659Z,98744.16
2019-03-10T14:28:25.110Z,98742.98
2019-03-10T14:30:57.481Z,98737.26
2019-03-10T14:33:29.927Z,98735.67
2019-03-10T14:36:02.409Z,98735.22
2019-03-10T14:38:35.301Z,98725.20
2019-03-10T14:41:07.712Z,98731.64
2019-03-10T14:43:40.158Z,98720.45
2019-03-10T14:46:12.490Z,98720.08
2019-03-10T14:48:45.009Z,98704.19
2019-03-10T14:51:18.170Z,98709.80
2019-03-10T14:53:52.350Z,98703.06
2019-03-10T14:56:24.822Z,98693.54
2019-03-10T14:58:57.559Z,98698.22
2019-03-10T15:01:30.003Z,98684.77
2019-03-10T15:04:02.942Z,98690.94
2019-03-10T15:06:35.322Z,98682.33
2019-03-10T15:09:09.140Z,98691.12
2019-03-10T15:11:43.051Z,98677.66
2019-03-10T15:14:15.500Z,98677.19
2019-03-10T15:16:47.877Z,98680.27
2019-03-10T15:19:20.380Z,98677.94
2019-03-10T15:21:52.959Z,98671.30
2019-03-10T15:24:25.810Z,98667.35
2019-03-10T15:26:58.232Z,98675.39
2019-03-10T15:29:30.664Z,98662.67
2019-03-10T15:32:03.234Z,98674.52
2019-03-10T15:34:35.671Z,98679.42
2019-03-10T15:37:08.053Z,98675.67
2019-03-10T15:39:40.551Z,98675.70
2019-03-10T15:42:12.981Z,98672.72
2019-03-10T15:44:45.510Z,98668.46
2019-03-10T15:47:17.960Z,98662.58
2019-03-10T15:49:52.140Z,98661.44
2019-03-10T15:52:24.521Z,98659.39
2019-03-10T15:54:57.101Z,98647.06
2019-03-10T15:57:29.482Z,98643.18
2019-03-10T16:00:01.940Z,98642.50
2019-03-10T16:02:35.980Z,98633.10
2019-03-10T16:05:08.956Z,98618.75
2019-03-10T16:07:41.641Z,98611.35
2019-03-10T16:10:14.250Z,98605.18
2019-03-10T16:12:46.690Z,98602.29
2019-03-10T16:15:19.492Z,98607.70
2019-03-10T16:17:51.851Z,98596.46
2019-03-10T16:20:25.361Z,98591.66
2019-03-10T16:22:57.811Z,98587.53
2019-03-10T16:25:30.312Z,98582.66
2019-03-10T16:28:02.780Z,98579.60
2019-03-10T16:30:35.130Z,98575.55
2019-03-10T16:33:07.420Z,98577.26
2019-03-10T16:35:41.411Z,98569.59
2019-03-10T16:38:13.725Z,98562.04
2019-03-10T16:40:45.089Z,98554.83
2019-03-10T16:43:18.400Z,98559.36
2019-03-10T16:45:54.693Z,98554.00
2019-03-10T16:48:27.110Z,98548.31
2019-03-10T16:51:00.113Z,98544.89
2019-03-10T16:53:33.010Z,98541.91
2019-03-10T16:56:06.210Z,98538.30
2019-03-10T16:58:38.588Z,98529.59
2019-03-10T17:01:11.151Z,98519.48
2019-03-10T17:03:43.541Z,98505.54
2019-03-10T17:06:16.475Z,98500.14
2019-03-10T17:08:48.952Z,98506.02
2019-03-10T17:11:21.481Z,98500.22
2019-03-10T17:13:53.940Z,98490.41
2019-03-10T17:16:28.020Z,98491.11
2019-03-10T17:19:01.071Z,98491.70
2019-03-10T17:21:34.020Z,98480.62
2019-03-10T17:24:06.470Z,98489.58
2019-03-10T17:26:39.129Z,98482.48
2019-03-10T17:29:11.572Z,98480.17
2019-03-10T17:31:44.070Z,98479.50
2019-03-10T17:34:16.440Z,98476.20
2019-03-10T17:36:50.371Z,98465.41
2019-03-10T17:39:22.823Z,98471.84
2019-03-10T17:41:55.530Z,98455.38
2019-03-10T17:44:28.090Z,98451.70
2019-03-10T17:47:04.091Z,98453.85
2019-03-10T17:49:36.730Z,98460.95
2019-03-10T17:52:14.395Z,98451.33
2019-03-10T17:54:44.640Z,98451.47
2019-03-10T17:57:16.970Z,98443.74
2019-03-10T17:59:49.360Z,98441.84
2019-03-10T18:02:22.008Z,98440.99
2019-03-10T18:04:54.470Z,98433.81
2019-03-10T18:07:26.930Z,98427.61
2019-03-10T18:09:59.302Z,98419.13
2019-03-10T18:12:31.830Z,98417.42
2019-03-10T18:15:08.728Z,98413.34
2019-03-10T18:17:38.837Z,98411.41
2019-03-10T18:20:13.329Z,98408.28
2019-03-10T18:22:45.921Z,98404.53
2019-03-10T18:25:18.330Z,98404.48
2019-03-10T18:27:50.740Z,98405.53
2019-03-10T18:30:23.202Z,98400.63
2019-03-10T18:32:56.249Z,98401.00
2019-03-10T18:35:28.879Z,98394.34
2019-03-10T18:38:01.586Z,98383.56
2019-03-10T18:40:34.101Z,98386.91
2019-03-10T18:43:08.910Z,98375.61
2019-03-10T18:45:42.580Z,98364.64
2019-03-10T18:48:15.591Z,98351.48
2019-03-10T18:50:48.036Z,98347.76
2019-03-10T18:53:20.410Z,98341.95
2019-03-10T18:55:52.860Z,98338.79
2019-03-10T18:58:25.340Z,98331.27
2019-03-10T19:00:57.975Z,98322.00
2019-03-10T19:03:30.470Z,98318.63
2019-03-10T19:06:03.310Z,98308.78
2019-03-10T19:08:36.714Z,98296.86
2019-03-10T19:11:09.160Z,98305.59
2019-03-10T19:13:41.602Z,98296.72
2019-03-10T19:16:14.000Z,98295.53
2019-03-10T19:18:47.510Z,98282.89
2019-03-10T19:21:19.850Z,98286.37
2019-03-10T19:23:52.310Z,98277.27
2019-03-10T19:26:27.059Z,98275.67
2019-03-10T19:28:59.981Z,98270.55
2019-03-10T19:31:33.122Z,98254.33
2019-03-10T19:34:05.799Z,98252.50
2019-03-10T19:36:38.320Z,98252.50
2019-03-10T19:39:10.720Z,98245.52
2019-03-10T19:41:44.542Z,98239.81
2019-03-10T19:44:16.993Z,98239.25
2019-03-10T19:46:50.140Z,98236.28
2019-03-10T19:49:23.813Z,98225.27
2019-03-10T19:51:56.279Z,98234.05
2019-03-10T19:54:28.604Z,98226.41
2019-03-10T19:56:59.979Z,98229.86
2019-03-10T19:59:32.678Z,98222.95
2019-03-10T20:02:04.959Z,98212.17
2019-03-10T20:04:37.403Z,98201.61
2019-03-10T20:07:10.073Z,98189.09
2019-03-10T20:09:42.591Z,98180.03
2019-03-10T20:12:16.122Z,98175.14
2019-03-10T20:14:49.121Z,98170.34
2019-03-10T20:17:22.031Z,98171.86
2019-03-10T20:19:55.140Z,98179.82
2019-03-10T20:22:28.231Z,98167.17
2019-03-10T20:25:00.761Z,98158.64
2019-03-10T20:27:33.731Z,98158.45
2019-03-10T20:30:06.810Z,98153.73
2019-03-10T20:32:40.230Z,98157.34
2019-03-10T20:35:12.915Z,98157.05
2019-03-10T20:37:45.820Z,98140.52
2019-03-10T20:40:18.571Z,98139.42
2019-03-10T20:42:51.913Z,98136.82
2019-03-10T20:45:24.936Z,98133.93
2019-03-10T20:47:58.189Z,98128.32
2019-03-10T20:50:32.129Z,98128.44
2019-03-10T20:53:06.551Z,98130.61
2019-03-10T20:55:39.373Z,98111.50
2019-03-10T20:58:12.190Z,98112.80
2019-03-10T21:00:44.660Z,98113.13
2019-03-10T21:03:17.200Z,98124.14
2019-03-10T21:05:49.871Z,98115.60
2019-03-10T21:08:22.955Z,98100.28
2019-03-10T21:10:55.368Z,98093.66
2019-03-10T21:13:27.770Z,98083.81
2019-03-10T21:16:00.248Z,98079.66
2019-03-10T21:18:32.640Z,98074.17
2019-03-10T21:21:05.071Z,98072.31
2019-03-10T21:23:37.406Z,98060.45
2019-03-10T21:26:09.965Z,98058.70
2019-03-10T21:28:42.380Z,98051.21
2019-03-10T21:31:25.750Z,98053.41
2019-03-10T21:33:58.141Z,98049.43
2019-03-10T21:36:31.152Z,98036.09
2019-03-10T21:39:05.661Z,98037.75
2019-03-10T21:41:38.991Z,98032.72
2019-03-10T21:44:13.650Z,98023.08
2019-03-10T21:46:46.848Z,98009.41
2019-03-10T21:49:19.670Z,98012.30
2019-03-10T21:51:52.020Z,98008.56
2019-03-10T21:54:24.601Z,98000.97
2019-03-10T21:56:56.950Z,98004.47
2019-03-10T21:59:29.561Z,98001.30
2019-03-10T22:02:02.033Z,98001.84
2019-03-10T22:04:34.581Z,97997.09
2019-03-10T22:07:07.059Z,97991.75
2019-03-10T22:09:39.470Z,97984.05
2019-03-10T22:12:13.692Z,97986.17
2019-03-10T22:14:46.090Z,97993.44
2019-03-10T22:17:18.482Z,97984.95
2019-03-10T22:19:50.875Z,97974.02
2019-03-10T22:22:23.560Z,97975.31
2019-03-10T22:24:55.971Z,97977.43
2019-03-10T22:27:28.310Z,97980.52
2019-03-10T22:30:01.238Z,97980.69
2019-03-10T22:32:33.720Z,97982.84
2019-03-10T22:35:06.740Z,97966.13
2019-03-10T22:37:39.130Z,97965.64
2019-03-10T22:40:11.954Z,97960.27
2019-03-10T22:42:44.352Z,97957.94
2019-03-10T22:45:16.957Z,97953.01
2019-03-10T22:47:50.820Z,97945.58
2019-03-10T22:50:23.450Z,97956.61
2019-03-10T22:52:55.780Z,97955.31
2019-03-10T22:55:28.093Z,97957.17
2019-03-10T22:58:00.480Z,97958.63
2019-03-10T23:00:51.852Z,97944.94
2019-03-10T23:03:24.690Z,97942.48
2019-03-10T23:05:58.380Z,97918.56
2019-03-10T23:08:31.060Z,97930.63
2019-03-10T23:11:03.540Z,97921.45
2019-03-10T23:13:37.062Z,97926.58
2019-03-10T23:16:09.571Z,97920.06
2019-03-10T23:18:41.922Z,97912.89
2019-03-10T23:21:14.572Z,97915.64
2019-03-10T23:23:47.679Z,97895.53
2019-03-10T23:26:19.990Z,97900.66
2019-03-10T23:28:51.989Z,97901.89
2019-03-10T23:31:24.252Z,97909.98
2019-03-10T23:33:56.945Z,97898.73
2019-03-10T23:36:29.290Z,97887.27
2019-03-10T23:39:01.620Z,97882.77
2019-03-10T23:41:36.601Z,97879.05
2019-03-10T23:44:08.840Z,97875.72
2019-03-10T23:46:40.268Z,97879.99
2019-03-10T23:49:12.836Z,97875.14
2019-03-10T23:51:45.382Z,97866.95
2019-03-10T23:54:17.791Z,97859.36
2019-03-10T23:56:52.363Z,97859.75
2019-03-10T23:59:24.870Z,97856.20
